createdAt,value
2022-11-04T00:01:47.903Z,95909.34
2022-11-04T00:04:19.627Z,95907.72
2022-11-04T00:06:48.130Z,95883.19
2022-11-04T00:09:19.628Z,95907.94
2022-11-04T00:12:05.480Z,95914.97
2022-11-04T00:14:34.307Z,95932.75
2022-11-04T00:17:20.224Z,95946.91
2022-11-04T00:20:08.727Z,95953.38
2022-11-04T00:22:54.318Z,95977.81
2022-11-04T00:28:30.207Z,95969.75
2022-11-04T00:31:19.582Z,95975.31
2022-11-04T00:33:47.112Z,95985.88
2022-11-04T00:36:16.937Z,95983.34
2022-11-04T00:38:45.392Z,95995.34
2022-11-04T00:41:27.555Z,95985.47
2022-11-04T00:43:57.638Z,95980.63
2022-11-04T00:46:25.937Z,95981.47
2022-11-04T00:48:54.165Z,95988.16
2022-11-04T00:51:23.892Z,95987.59
2022-11-04T00:53:51.969Z,95975.03
2022-11-04T00:56:20.216Z,95978.53
2022-11-04T00:58:50.282Z,95971.78
2022-11-04T01:01:19.607Z,95983.06
2022-11-04T01:03:48.906Z,96002.94
2022-11-04T01:06:17.169Z,96014.22
2022-11-04T01:08:46.916Z,96004.66
2022-11-04T01:11:16.507Z,96005.06
2022-11-04T01:13:44.678Z,96008.09
2022-11-04T01:16:13.104Z,96002.41
2022-11-04T01:18:41.793Z,96005.06
2022-11-04T01:21:12.950Z,96008.88
2022-11-04T01:23:41.467Z,96019.63
2022-11-04T01:26:13.266Z,96026.53
2022-11-04T01:28:41.489Z,96029.78
2022-11-04T01:31:10.428Z,96036.47
2022-11-04T01:33:38.626Z,96041.78
2022-11-04T01:36:08.101Z,96038.94
2022-11-04T01:38:36.497Z,96048.13
2022-11-04T01:41:05.197Z,96052.41
2022-11-04T01:43:47.715Z,96045.91
2022-11-04T01:46:24.675Z,96055.06
2022-11-04T01:48:53.186Z,96055.31
2022-11-04T01:51:23.167Z,96053.69
2022-11-04T01:53:52.408Z,96058.81
2022-11-04T01:57:16.420Z,96055.59
2022-11-04T01:59:46.138Z,96042.22
2022-11-04T02:02:14.719Z,96049.31
2022-11-04T02:04:44.679Z,96063.31
2022-11-04T02:07:13.779Z,96071.22
2022-11-04T02:09:43.172Z,96074.91
2022-11-04T02:12:28.646Z,96076.34
2022-11-04T02:14:59.569Z,96085.50
2022-11-04T02:17:37.456Z,96083.91
2022-11-04T02:20:22.680Z,96080.28
2022-11-04T02:23:03.017Z,96077.88
2022-11-04T02:25:54.078Z,96081.97
2022-11-04T02:28:46.274Z,96079.97
2022-11-04T02:31:17.514Z,96092.56
2022-11-04T02:33:49.105Z,96088.09
2022-11-04T02:36:27.868Z,96094.00
2022-11-04T02:38:58.628Z,96094.19
2022-11-04T02:41:35.344Z,96102.31
2022-11-04T02:44:09.588Z,96102.66
2022-11-04T02:46:41.684Z,96097.19
2022-11-04T02:49:13.252Z,96094.75
2022-11-04T02:51:48.484Z,96100.03
2022-11-04T02:54:20.337Z,96101.44
2022-11-04T02:56:50.984Z,96101.03
2022-11-04T02:59:23.628Z,96088.44
2022-11-04T03:01:55.690Z,96106.72
2022-11-04T03:04:28.996Z,96104.69
2022-11-04T03:06:59.239Z,96114.25
2022-11-04T03:09:29.539Z,96117.69
2022-11-04T03:12:01.472Z,96115.25
2022-11-04T03:14:32.984Z,96117.50
2022-11-04T03:17:06.135Z,96112.78
2022-11-04T03:19:40.460Z,96113.84
2022-11-04T03:22:12.215Z,96111.38
2022-11-04T03:24:41.687Z,96107.50
2022-11-04T03:27:16.014Z,96113.63
2022-11-04T03:29:49.004Z,96106.72
2022-11-04T03:32:24.473Z,96105.09
2022-11-04T03:34:52.935Z,96103.88
2022-11-04T03:37:21.105Z,96102.84
2022-11-04T03:39:49.283Z,96113.19
2022-11-04T03:42:23.656Z,96113.19
2022-11-04T03:44:52.894Z,96121.09
2022-11-04T03:47:24.677Z,96122.47
2022-11-04T03:49:54.878Z,96124.09
2022-11-04T03:52:22.965Z,96112.91
2022-11-04T03:54:51.374Z,96114.53
2022-11-04T03:57:32.189Z,96107.84
2022-11-04T04:00:08.934Z,96103.16
2022-11-04T04:02:44.807Z,96112.06
2022-11-04T04:05:18.738Z,96114.75
2022-11-04T04:07:51.806Z,96111.88
2022-11-04T04:10:41.898Z,96114.72
2022-11-04T04:13:21.504Z,96120.38
2022-11-04T04:15:53.823Z,96114.91
2022-11-04T04:18:30.750Z,96119.97
2022-11-04T04:21:01.254Z,96122.78
2022-11-04T04:23:48.492Z,96123.59
2022-11-04T04:26:35.433Z,96118.47
2022-11-04T04:29:06.003Z,96122.34
2022-11-04T04:31:50.706Z,96119.91
2022-11-04T04:34:22.400Z,96118.06
2022-11-04T04:36:55.184Z,96112.19
2022-11-04T04:39:42.673Z,96109.13
2022-11-04T04:42:29.175Z,96118.63
2022-11-04T04:45:04.635Z,96116.22
2022-11-04T04:47:40.242Z,96117.59
2022-11-04T04:50:11.530Z,96116.59
2022-11-04T04:52:41.322Z,96112.97
2022-11-04T04:55:10.612Z,96117.00
2022-11-04T04:57:38.963Z,96101.16
2022-11-04T05:00:09.243Z,96097.09
2022-11-04T05:02:37.518Z,96086.19
2022-11-04T05:05:06.164Z,96081.91
2022-11-04T05:07:35.749Z,96084.34
2022-11-04T05:10:03.852Z,96086.78
2022-11-04T05:12:52.322Z,96083.31
2022-11-04T05:15:20.403Z,96078.44
2022-11-04T05:17:48.692Z,96069.53
2022-11-04T05:20:17.004Z,96074.97
2022-11-04T05:22:46.505Z,96073.34
2022-11-04T05:25:15.715Z,96071.38
2022-11-04T05:27:43.814Z,96074.56
2022-11-04T05:30:13.410Z,96069.88
2022-11-04T05:32:41.545Z,96064.41
2022-11-04T05:35:10.785Z,96055.50
2022-11-04T05:37:38.915Z,96052.41
2022-11-04T05:40:10.031Z,96038.94
2022-11-04T05:42:38.095Z,96046.69
2022-11-04T05:45:07.881Z,96055.59
2022-11-04T05:47:36.084Z,96085.59
2022-11-04T05:50:05.282Z,96103.44
2022-11-04T05:52:33.370Z,96094.13
2022-11-04T05:55:01.555Z,96094.06
2022-11-04T05:57:31.022Z,96103.44
2022-11-04T05:59:59.183Z,96100.78
2022-11-04T06:02:27.605Z,96091.44
2022-11-04T06:04:55.838Z,96107.44
2022-11-04T06:07:23.903Z,96114.34
2022-11-04T06:09:52.025Z,96126.28
2022-11-04T06:12:20.095Z,96132.19
2022-11-04T06:14:49.642Z,96133.19
2022-11-04T06:17:19.231Z,96139.84
2022-11-04T06:19:47.472Z,96139.63
2022-11-04T06:22:17.515Z,96127.28
2022-11-04T06:24:45.752Z,96135.38
2022-11-04T06:27:14.223Z,96142.28
2022-11-04T06:29:42.535Z,96141.13
2022-11-04T06:32:14.353Z,96146.22
2022-11-04T06:34:42.535Z,96149.09
2022-11-04T06:37:14.119Z,96132.09
2022-11-04T06:39:42.453Z,96152.22
2022-11-04T06:42:10.756Z,96160.13
2022-11-04T06:44:38.902Z,96147.56
2022-11-04T06:47:06.993Z,96149.16
2022-11-04T06:49:36.545Z,96130.16
2022-11-04T06:52:04.793Z,96135.84
2022-11-04T06:54:34.140Z,96143.88
2022-11-04T06:57:03.096Z,96143.69
2022-11-04T06:59:31.324Z,96132.72
2022-11-04T07:01:59.595Z,96151.66
2022-11-04T07:04:27.836Z,96150.03
2022-11-04T07:06:57.331Z,96142.28
2022-11-04T07:09:25.373Z,96141.50
2022-11-04T07:11:53.489Z,96146.53
2022-11-04T07:14:21.586Z,96141.66
2022-11-04T07:16:51.724Z,96139.81
2022-11-04T07:19:20.036Z,96131.34
2022-11-04T07:21:48.116Z,96120.19
2022-11-04T07:24:17.680Z,96121.03
2022-11-04T07:26:45.828Z,96111.09
2022-11-04T07:29:13.947Z,96117.81
2022-11-04T07:31:42.277Z,96109.53
2022-11-04T07:34:10.441Z,96106.88
2022-11-04T07:36:38.557Z,96110.31
2022-11-04T07:39:06.839Z,96098.59
2022-11-04T07:41:37.002Z,96071.22
2022-11-04T07:44:05.758Z,96071.25
2022-11-04T07:46:34.446Z,96074.91
2022-11-04T07:49:03.131Z,96079.78
2022-11-04T07:51:32.421Z,96094.84
2022-11-04T07:54:00.646Z,96104.78
2022-11-04T07:56:28.774Z,96119.81
2022-11-04T07:58:58.562Z,96107.41
2022-11-04T08:01:27.055Z,96101.09
2022-11-04T08:03:55.191Z,96094.22
2022-11-04T08:06:23.969Z,96100.91
2022-11-04T08:08:54.220Z,96105.16
2022-11-04T08:11:25.403Z,96111.63
2022-11-04T08:13:53.744Z,96115.44
2022-11-04T08:16:31.416Z,96129.00
2022-11-04T08:19:02.942Z,96137.13
2022-11-04T08:21:31.862Z,96146.53
2022-11-04T08:23:59.963Z,96167.38
2022-11-04T08:26:28.073Z,96179.31
2022-11-04T08:28:56.672Z,96176.94
2022-11-04T08:31:27.483Z,96182.00
2022-11-04T08:33:56.131Z,96179.88
2022-11-04T08:36:26.624Z,96180.22
2022-11-04T08:38:55.362Z,96178.19
2022-11-04T08:41:26.867Z,96178.19
2022-11-04T08:43:55.133Z,96175.56
2022-11-04T08:46:23.456Z,96168.66
2022-11-04T08:48:53.112Z,96186.16
2022-11-04T08:51:23.622Z,96193.91
2022-11-04T08:53:51.953Z,96190.69
2022-11-04T08:56:22.904Z,96183.22
2022-11-04T08:58:51.381Z,96177.16
2022-11-04T09:01:21.254Z,96168.28
2022-11-04T09:03:50.124Z,96160.28
2022-11-04T09:06:22.571Z,96163.66
2022-11-04T09:08:51.583Z,96161.75
2022-11-04T09:11:20.007Z,96146.78
2022-11-04T09:13:48.297Z,96140.34
2022-11-04T09:16:17.384Z,96128.38
2022-11-04T09:18:45.494Z,96124.53
2022-11-04T09:21:13.865Z,96124.13
2022-11-04T09:23:43.686Z,96100.94
2022-11-04T09:26:13.976Z,96110.28
2022-11-04T09:28:42.325Z,96112.94
2022-11-04T09:31:11.975Z,96110.47
2022-11-04T09:33:40.652Z,96118.00
2022-11-04T09:36:10.033Z,96117.00
2022-11-04T09:38:38.723Z,96105.81
2022-11-04T09:41:34.127Z,96103.56
2022-11-04T09:44:06.017Z,96103.72
2022-11-04T09:46:35.006Z,96101.88
2022-11-04T09:49:04.802Z,96091.66
2022-11-04T09:51:53.149Z,96086.09
2022-11-04T09:54:24.036Z,96080.91
2022-11-04T09:56:54.690Z,96084.13
2022-11-04T09:59:26.508Z,96087.41
2022-11-04T10:02:09.340Z,96076.47
2022-11-04T10:04:50.511Z,96076.25
2022-11-04T10:07:29.244Z,96074.66
2022-11-04T10:10:04.852Z,96069.56
2022-11-04T10:12:52.812Z,96066.91
2022-11-04T10:15:46.748Z,96065.09
2022-11-04T10:18:27.236Z,96064.72
2022-11-04T10:20:59.756Z,96062.72
2022-11-04T10:23:34.067Z,96068.19
2022-11-04T10:26:07.473Z,96058.63
2022-11-04T10:28:41.134Z,96050.91
2022-11-04T10:31:13.774Z,96052.53
2022-11-04T10:33:44.883Z,96059.88
2022-11-04T10:36:14.215Z,96061.06
2022-11-04T10:38:45.053Z,96073.69
2022-11-04T10:41:24.240Z,96073.28
2022-11-04T10:43:56.023Z,96077.13
2022-11-04T10:46:38.900Z,96092.16
2022-11-04T10:49:18.193Z,96087.28
2022-11-04T10:51:46.917Z,96087.06
2022-11-04T10:54:15.082Z,96076.94
2022-11-04T10:56:45.195Z,96069.19
2022-11-04T10:59:25.759Z,96075.31
2022-11-04T11:01:55.043Z,96075.72
2022-11-04T11:04:29.378Z,96053.34
2022-11-04T11:06:59.541Z,96064.94
2022-11-04T11:09:29.985Z,96065.56
2022-11-04T11:12:01.238Z,96065.53
2022-11-04T11:14:38.797Z,96057.59
2022-11-04T11:17:21.518Z,96053.75
2022-11-04T11:19:52.257Z,96045.22
2022-11-04T11:22:38.023Z,96046.03
2022-11-04T11:25:24.943Z,96045.78
2022-11-04T11:27:55.094Z,96037.66
2022-11-04T11:30:27.164Z,96032.22
2022-11-04T11:32:58.042Z,96034.25
2022-11-04T11:35:30.151Z,96034.84
2022-11-04T11:37:59.276Z,96033.44
2022-11-04T11:40:31.786Z,96037.88
2022-11-04T11:43:01.536Z,96029.53
2022-11-04T11:45:31.552Z,96036.03
2022-11-04T11:47:59.874Z,96030.53
2022-11-04T11:50:34.607Z,96030.75
2022-11-04T11:53:16.033Z,96035.81
2022-11-04T11:55:48.797Z,96037.47
2022-11-04T12:01:25.131Z,96037.09
2022-11-04T12:09:39.972Z,96045.00
2022-11-04T12:12:24.218Z,96047.03
2022-11-04T12:15:17.977Z,96049.69
2022-11-04T12:17:57.835Z,96058.63
2022-11-04T12:20:32.804Z,96064.94
2022-11-04T12:23:08.510Z,96062.28
2022-11-04T12:25:41.654Z,96064.13
2022-11-04T12:28:22.574Z,96078.16
2022-11-04T12:30:56.334Z,96083.41
2022-11-04T12:33:35.193Z,96067.97
2022-11-04T12:36:12.923Z,96070.38
2022-11-04T12:39:02.187Z,96069.97
2022-11-04T12:42:06.334Z,96066.28
2022-11-04T12:44:31.644Z,96064.66
2022-11-04T12:47:09.256Z,96069.56
2022-11-04T12:49:48.510Z,96078.06
2022-11-04T12:52:27.673Z,96089.66
2022-11-04T12:55:06.904Z,96080.47
2022-11-04T12:57:40.081Z,96082.09
2022-11-04T13:00:14.084Z,96088.38
2022-11-04T13:02:46.471Z,96084.97
2022-11-04T13:05:32.493Z,96087.59
2022-11-04T13:08:08.663Z,96083.31
2022-11-04T13:10:45.496Z,96090.03
2022-11-04T13:13:15.976Z,96087.16
2022-11-04T13:15:48.203Z,96077.94
2022-11-04T13:18:19.164Z,96080.19
2022-11-04T13:20:53.134Z,96085.94
2022-11-04T13:23:24.893Z,96078.38
2022-11-04T13:25:54.283Z,96078.44
2022-11-04T13:28:23.600Z,96078.16
2022-11-04T13:30:56.794Z,96075.75
2022-11-04T13:33:32.273Z,96082.50
2022-11-04T13:36:06.765Z,96083.72
2022-11-04T13:38:38.521Z,96092.25
2022-11-04T13:41:22.734Z,96086.59
2022-11-04T13:43:53.392Z,96097.16
2022-11-04T13:46:30.086Z,96098.16
2022-11-04T13:49:05.013Z,96113.41
2022-11-04T13:51:42.575Z,96111.22
2022-11-04T13:54:26.364Z,96116.06
2022-11-04T13:57:05.253Z,96115.22
2022-11-04T13:59:34.239Z,96127.22
2022-11-04T14:02:33.723Z,96133.72
2022-11-04T14:05:40.553Z,96137.78
2022-11-04T14:08:14.673Z,96145.09
2022-11-04T14:10:48.229Z,96138.41
2022-11-04T14:13:59.077Z,96143.47
2022-11-04T14:16:44.794Z,96141.63
2022-11-04T14:19:58.461Z,96150.34
2022-11-04T14:22:39.023Z,96137.53
2022-11-04T14:25:27.354Z,96132.63
2022-11-04T14:27:57.303Z,96151.47
2022-11-04T14:30:34.663Z,96140.59
2022-11-04T14:33:05.033Z,96145.66
2022-11-04T14:35:34.056Z,96143.94
2022-11-04T14:38:08.014Z,96158.94
2022-11-04T14:40:52.436Z,96155.06
2022-11-04T14:43:33.394Z,96156.84
2022-11-04T14:46:02.163Z,96167.81
2022-11-04T14:48:30.924Z,96173.66
2022-11-04T14:50:59.795Z,96174.28
2022-11-04T14:53:32.097Z,96176.84
2022-11-04T14:56:22.918Z,96171.56
2022-11-04T14:59:00.116Z,96169.09
2022-11-04T15:01:34.537Z,96185.94
2022-11-04T15:04:13.159Z,96190.28
2022-11-04T15:06:57.704Z,96198.59
2022-11-04T15:09:27.265Z,96191.00
2022-11-04T15:12:23.823Z,96194.47
2022-11-04T15:14:52.681Z,96201.50
2022-11-04T15:17:22.290Z,96196.41
2022-11-04T15:19:52.078Z,96207.34
2022-11-04T15:22:20.781Z,96200.81
2022-11-04T15:24:50.738Z,96206.84
2022-11-04T15:27:24.472Z,96207.22
2022-11-04T15:29:57.336Z,96210.91
2022-11-04T15:32:25.853Z,96219.09
2022-11-04T15:34:54.394Z,96213.19
2022-11-04T15:37:24.907Z,96215.63
2022-11-04T15:39:55.358Z,96217.00
2022-11-04T15:42:40.315Z,96228.75
2022-11-04T15:45:29.833Z,96233.22
2022-11-04T15:48:23.854Z,96224.06
2022-11-04T15:50:55.172Z,96239.50
2022-11-04T15:53:23.415Z,96227.25
2022-11-04T15:55:51.613Z,96246.53
2022-11-04T15:58:21.476Z,96240.25
2022-11-04T16:00:53.987Z,96242.44
2022-11-04T16:03:24.507Z,96250.97
2022-11-04T16:06:04.079Z,96242.00
2022-11-04T16:08:33.414Z,96250.91
2022-11-04T16:11:16.331Z,96251.34
2022-11-04T16:13:46.597Z,96251.25
2022-11-04T16:16:24.073Z,96258.53
2022-11-04T16:18:54.514Z,96248.44
2022-11-04T16:21:25.962Z,96249.44
2022-11-04T16:23:56.603Z,96255.28
2022-11-04T16:26:27.217Z,96253.84
2022-11-04T16:28:58.253Z,96263.56
2022-11-04T16:31:28.912Z,96258.22
2022-11-04T16:33:57.074Z,96266.22
2022-11-04T16:36:28.500Z,96265.66
2022-11-04T16:39:00.574Z,96274.75
2022-11-04T16:41:30.093Z,96267.41
2022-11-04T16:43:59.905Z,96272.69
2022-11-04T16:46:28.096Z,96279.31
2022-11-04T16:48:56.184Z,96280.59
2022-11-04T16:51:25.674Z,96278.50
2022-11-04T16:53:55.263Z,96280.31
2022-11-04T16:56:25.194Z,96282.97
2022-11-04T16:58:53.648Z,96285.13
2022-11-04T17:01:23.228Z,96284.66
2022-11-04T17:03:51.444Z,96290.03
2022-11-04T17:06:20.373Z,96291.59
2022-11-04T17:08:48.544Z,96287.78
2022-11-04T17:11:16.627Z,96296.88
2022-11-04T17:13:44.844Z,96298.41
2022-11-04T17:16:15.343Z,96297.88
2022-11-04T17:18:45.152Z,96297.50
2022-11-04T17:21:17.120Z,96298.22
2022-11-04T17:23:45.746Z,96304.09
2022-11-04T17:26:14.058Z,96305.84
2022-11-04T17:28:42.314Z,96309.31
2022-11-04T17:31:12.703Z,96304.66
2022-11-04T17:33:40.835Z,96313.19
2022-11-04T17:36:11.823Z,96314.44
2022-11-04T17:38:39.943Z,96305.91
2022-11-04T17:41:25.647Z,96306.03
2022-11-04T17:44:02.612Z,96314.91
2022-11-04T17:46:38.298Z,96315.81
2022-11-04T17:49:09.316Z,96314.66
2022-11-04T17:51:41.025Z,96318.28
2022-11-04T17:54:09.602Z,96322.38
2022-11-04T17:56:38.889Z,96326.56
2022-11-04T17:59:07.094Z,96324.88
2022-11-04T18:01:36.504Z,96333.63
2022-11-04T18:04:04.815Z,96321.91
2022-11-04T18:06:35.131Z,96335.78
2022-11-04T18:09:05.713Z,96341.88
2022-11-04T18:11:51.491Z,96332.50
2022-11-04T18:14:19.932Z,96336.78
2022-11-04T18:16:49.914Z,96340.03
2022-11-04T18:19:19.184Z,96344.88
2022-11-04T18:21:47.881Z,96346.59
2022-11-04T18:24:18.100Z,96345.75
2022-11-04T18:26:46.381Z,96348.22
2022-11-04T18:29:14.495Z,96345.75
2022-11-04T18:31:48.796Z,96348.47
2022-11-04T18:34:19.667Z,96351.47
2022-11-04T18:36:48.493Z,96355.44
2022-11-04T18:39:19.544Z,96355.31
2022-11-04T18:41:47.812Z,96361.50
2022-11-04T18:44:18.153Z,96363.97
2022-11-04T18:46:47.912Z,96374.31
2022-11-04T18:49:16.793Z,96379.91
2022-11-04T18:51:45.494Z,96383.25
2022-11-04T18:54:14.881Z,96372.09
2022-11-04T18:56:44.754Z,96380.00
2022-11-04T18:59:14.142Z,96383.97
2022-11-04T19:01:43.096Z,96383.13
2022-11-04T19:04:11.559Z,96389.88
2022-11-04T19:06:42.092Z,96387.16
2022-11-04T19:09:45.483Z,96400.25
2022-11-04T19:12:19.412Z,96396.53
2022-11-04T19:14:47.472Z,96413.25
2022-11-04T19:17:15.635Z,96411.09
2022-11-04T19:19:43.793Z,96418.00
2022-11-04T19:22:11.937Z,96423.91
2022-11-04T19:24:40.533Z,96427.75
2022-11-04T19:27:10.098Z,96432.31
2022-11-04T19:29:38.373Z,96430.50
2022-11-04T19:32:12.796Z,96433.47
2022-11-04T19:34:42.352Z,96438.84
2022-11-04T19:37:10.758Z,96440.34
2022-11-04T19:39:39.175Z,96441.31
2022-11-04T19:42:25.253Z,96449.03
2022-11-04T19:44:54.831Z,96451.38
2022-11-04T19:47:22.962Z,96447.47
2022-11-04T19:49:51.033Z,96452.44
2022-11-04T19:52:20.405Z,96459.34
2022-11-04T19:54:48.524Z,96456.88
2022-11-04T19:57:16.813Z,96457.84
2022-11-04T19:59:44.996Z,96468.22
2022-11-04T20:02:15.622Z,96472.84
2022-11-04T20:04:43.894Z,96479.91
2022-11-04T20:07:12.033Z,96485.00
2022-11-04T20:09:41.623Z,96486.00
2022-11-04T20:12:27.440Z,96490.44
2022-11-04T20:14:56.560Z,96494.06
2022-11-04T20:17:26.393Z,96498.88
2022-11-04T20:19:54.514Z,96498.59
2022-11-04T20:22:22.670Z,96499.41
2022-11-04T20:24:50.760Z,96507.13
2022-11-04T20:27:19.114Z,96497.59
2022-11-04T20:29:47.254Z,96510.88
2022-11-04T20:32:15.345Z,96508.59
2022-11-04T20:34:45.444Z,96514.50
2022-11-04T20:37:13.583Z,96517.13
2022-11-04T20:39:42.280Z,96518.78
2022-11-04T20:42:10.493Z,96515.78
2022-11-04T20:44:38.674Z,96519.59
2022-11-04T20:47:06.733Z,96518.47
2022-11-04T20:49:34.862Z,96532.44
2022-11-04T20:52:04.563Z,96533.31
2022-11-04T20:54:32.731Z,96546.97
2022-11-04T20:57:01.576Z,96547.13
2022-11-04T20:59:29.853Z,96546.81
2022-11-04T21:01:59.150Z,96548.75
2022-11-04T21:04:31.865Z,96548.94
2022-11-04T21:07:04.725Z,96559.97
2022-11-04T21:09:32.881Z,96559.28
2022-11-04T21:12:01.718Z,96568.66
2022-11-04T21:14:31.914Z,96562.25
2022-11-04T21:17:00.494Z,96562.59
2022-11-04T21:19:28.553Z,96566.03
2022-11-04T21:21:57.016Z,96572.28
2022-11-04T21:24:26.507Z,96573.91
2022-11-04T21:26:55.629Z,96571.28
2022-11-04T21:29:23.783Z,96565.19
2022-11-04T21:31:51.949Z,96565.88
2022-11-04T21:34:20.376Z,96570.34
2022-11-04T21:36:52.084Z,96567.41
2022-11-04T21:39:20.515Z,96554.56
2022-11-04T21:41:50.033Z,96562.00
2022-11-04T21:44:18.135Z,96569.56
2022-11-04T21:46:46.543Z,96566.78
2022-11-04T21:49:14.743Z,96573.03
2022-11-04T21:51:42.941Z,96565.63
2022-11-04T21:54:12.095Z,96565.16
2022-11-04T21:56:40.208Z,96568.97
2022-11-04T21:59:17.070Z,96578.63
2022-11-04T22:01:46.833Z,96585.56
2022-11-04T22:04:15.175Z,96582.59
2022-11-04T22:06:43.294Z,96587.69
2022-11-04T22:09:12.816Z,96587.84
2022-11-04T22:11:40.974Z,96590.00
2022-11-04T22:14:13.357Z,96592.28
2022-11-04T22:16:41.605Z,96589.16
2022-11-04T22:19:11.153Z,96590.00
2022-11-04T22:21:41.003Z,96589.34
2022-11-04T22:24:11.573Z,96582.63
2022-11-04T22:26:40.045Z,96588.19
2022-11-04T22:29:08.324Z,96589.66
2022-11-04T22:31:39.062Z,96594.09
2022-11-04T22:34:07.656Z,96584.59
2022-11-04T22:36:35.856Z,96579.81
2022-11-04T22:39:05.614Z,96585.25
2022-11-04T22:41:34.576Z,96592.13
2022-11-04T22:44:03.388Z,96590.00
2022-11-04T22:46:32.787Z,96600.69
2022-11-04T22:49:02.322Z,96602.00
2022-11-04T22:51:31.634Z,96594.91
2022-11-04T22:54:06.508Z,96599.50
2022-11-04T22:56:36.344Z,96603.63
2022-11-04T22:59:04.474Z,96602.66
2022-11-04T23:01:34.084Z,96599.50
2022-11-04T23:04:03.860Z,96603.63
2022-11-04T23:06:32.513Z,96596.22
2022-11-04T23:09:01.295Z,96600.66
2022-11-04T23:11:47.926Z,96605.75
2022-11-04T23:14:49.615Z,96601.97
2022-11-04T23:17:34.477Z,96602.81
2022-11-04T23:20:07.483Z,96618.56
2022-11-04T23:22:53.195Z,96609.69
2022-11-04T23:25:21.533Z,96614.78
2022-11-04T23:28:07.866Z,96611.84
2022-11-04T23:30:38.543Z,96612.66
2022-11-04T23:33:08.111Z,96612.66
2022-11-04T23:35:58.346Z,96616.75
2022-11-04T23:38:26.943Z,96610.38
2022-11-04T23:41:14.751Z,96616.75
2022-11-04T23:43:43.114Z,96622.81
2022-11-04T23:46:29.076Z,96623.19
2022-11-04T23:49:14.742Z,96622.19
2022-11-04T23:52:02.038Z,96633.16
2022-11-04T23:54:47.474Z,96628.25
2022-11-04T23:57:34.315Z,96628.25
